sensor_id;sensor_type;location;lat;lon;timestamp;pressure;altitude;pressure_sealevel;temperature;humidity
71857;BME280;63344;46.980;28.882;2023-04-24T00:01:25;100672.69;;;6.68;87.87
71857;BME280;63344;46.980;28.882;2023-04-24T00:03:53;100668.41;;;6.62;87.70
71857;BME280;63344;46.980;28.882;2023-04-24T00:06:21;100672.88;;;6.58;87.74
71857;BME280;63344;46.980;28.882;2023-04-24T00:08:50;100671.19;;;6.56;88.01
71857;BME280;63344;46.980;28.882;2023-04-24T00:11:17;100665.91;;;6.56;88.30
71857;BME280;63344;46.980;28.882;2023-04-24T00:13:44;100668.59;;;6.53;88.44
71857;BME280;63344;46.980;28.882;2023-04-24T00:16:12;100665.22;;;6.48;88.48
71857;BME280;63344;46.980;28.882;2023-04-24T00:18:39;100675.06;;;6.40;88.28
71857;BME280;63344;46.980;28.882;2023-04-24T00:21:06;100669.13;;;6.28;87.96
71857;BME280;63344;46.980;28.882;2023-04-24T00:23:34;100667.44;;;6.24;88.13
71857;BME280;63344;46.980;28.882;2023-04-24T00:26:02;100658.69;;;6.22;88.58
71857;BME280;63344;46.980;28.882;2023-04-24T00:28:30;100670.13;;;6.23;89.02
71857;BME280;63344;46.980;28.882;2023-04-24T00:30:58;100666.69;;;6.19;89.41
71857;BME280;63344;46.980;28.882;2023-04-24T00:33:25;100664.97;;;6.15;89.80
71857;BME280;63344;46.980;28.882;2023-04-24T00:35:53;100668.59;;;6.11;89.83
71857;BME280;63344;46.980;28.882;2023-04-24T00:38:20;100659.06;;;6.05;89.59
71857;BME280;63344;46.980;28.882;2023-04-24T00:40:49;100659.91;;;6.06;89.87
71857;BME280;63344;46.980;28.882;2023-04-24T00:43:17;100662.56;;;6.06;89.91
71857;BME280;63344;46.980;28.882;2023-04-24T00:45:44;100658.16;;;6.05;89.97
71857;BME280;63344;46.980;28.882;2023-04-24T00:48:11;100660.84;;;6.03;89.86
71857;BME280;63344;46.980;28.882;2023-04-24T00:50:39;100659.06;;;6.04;90.74
71857;BME280;63344;46.980;28.882;2023-04-24T00:53:06;100662.66;;;6.01;90.95
71857;BME280;63344;46.980;28.882;2023-04-24T00:55:33;100660.09;;;5.95;90.54
71857;BME280;63344;46.980;28.882;2023-04-24T00:58:01;100647.00;;;5.90;90.28
71857;BME280;63344;46.980;28.882;2023-04-24T01:00:29;100655.84;;;5.88;90.38
71857;BME280;63344;46.980;28.882;2023-04-24T01:02:59;100641.78;;;5.87;90.72
71857;BME280;63344;46.980;28.882;2023-04-24T01:05:29;100649.69;;;5.87;90.93
71857;BME280;63344;46.980;28.882;2023-04-24T01:07:56;100654.00;;;5.91;91.20
71857;BME280;63344;46.980;28.882;2023-04-24T01:10:25;100648.75;;;5.91;91.50
71857;BME280;63344;46.980;28.882;2023-04-24T01:12:54;100649.59;;;5.92;91.55
71857;BME280;63344;46.980;28.882;2023-04-24T01:15:22;100652.22;;;5.93;91.10
71857;BME280;63344;46.980;28.882;2023-04-24T01:17:49;100654.84;;;5.95;91.63
71857;BME280;63344;46.980;28.882;2023-04-24T01:20:17;100649.53;;;5.96;91.31
71857;BME280;63344;46.980;28.882;2023-04-24T01:22:44;100646.03;;;5.96;91.22
71857;BME280;63344;46.980;28.882;2023-04-24T01:25:12;100645.16;;;5.94;91.18
71857;BME280;63344;46.980;28.882;2023-04-24T01:27:39;100646.03;;;5.96;91.19
71857;BME280;63344;46.980;28.882;2023-04-24T01:30:07;100640.53;;;6.08;92.29
71857;BME280;63344;46.980;28.882;2023-04-24T01:32:35;100642.75;;;6.28;92.85
71857;BME280;63344;46.980;28.882;2023-04-24T01:35:03;100646.09;;;6.36;92.44
71857;BME280;63344;46.980;28.882;2023-04-24T01:37:30;100639.09;;;6.35;91.74
71857;BME280;63344;46.980;28.882;2023-04-24T01:39:59;100639.22;;;6.29;90.70
71857;BME280;63344;46.980;28.882;2023-04-24T01:42:26;100631.63;;;6.14;89.46
71857;BME280;63344;46.980;28.882;2023-04-24T01:44:54;100632.84;;;5.97;88.93
71857;BME280;63344;46.980;28.882;2023-04-24T01:47:22;100633.84;;;5.89;89.09
71857;BME280;63344;46.980;28.882;2023-04-24T01:49:50;100618.22;;;5.79;89.07
71857;BME280;63344;46.980;28.882;2023-04-24T01:52:17;100626.19;;;5.75;89.47
71857;BME280;63344;46.980;28.882;2023-04-24T01:54:45;100628.91;;;5.70;89.45
71857;BME280;63344;46.980;28.882;2023-04-24T01:57:14;100618.47;;;5.66;90.08
71857;BME280;63344;46.980;28.882;2023-04-24T01:59:41;100611.59;;;5.57;90.12
71857;BME280;63344;46.980;28.882;2023-04-24T02:02:13;100609.06;;;5.52;89.95
71857;BME280;63344;46.980;28.882;2023-04-24T02:04:40;100609.16;;;5.46;90.15
71857;BME280;63344;46.980;28.882;2023-04-24T02:07:08;100602.25;;;5.39;90.46
71857;BME280;63344;46.980;28.882;2023-04-24T02:09:35;100605.00;;;5.33;90.30
71857;BME280;63344;46.980;28.882;2023-04-24T02:12:02;100612.16;;;5.26;90.38
71857;BME280;63344;46.980;28.882;2023-04-24T02:14:30;100608.78;;;5.18;90.68
71857;BME280;63344;46.980;28.882;2023-04-24T02:16:57;100607.09;;;5.14;90.78
71857;BME280;63344;46.980;28.882;2023-04-24T02:19:27;100615.09;;;5.09;90.42
71857;BME280;63344;46.980;28.882;2023-04-24T02:21:54;100613.34;;;5.07;91.13
71857;BME280;63344;46.980;28.882;2023-04-24T02:24:22;100621.25;;;5.07;91.25
71857;BME280;63344;46.980;28.882;2023-04-24T02:26:49;100613.34;;;5.07;91.66
71857;BME280;63344;46.980;28.882;2023-04-24T02:29:16;100613.31;;;5.08;91.76
71857;BME280;63344;46.980;28.882;2023-04-24T02:31:43;100608.09;;;5.07;92.05
71857;BME280;63344;46.980;28.882;2023-04-24T02:34:11;100616.88;;;5.07;92.02
71857;BME280;63344;46.980;28.882;2023-04-24T02:36:38;100614.28;;;5.04;92.06
71857;BME280;63344;46.980;28.882;2023-04-24T02:39:06;100613.44;;;5.02;91.89
71857;BME280;63344;46.980;28.882;2023-04-24T02:41:33;100616.06;;;5.02;91.84
71857;BME280;63344;46.980;28.882;2023-04-24T02:44:01;100612.56;;;5.02;91.80
71857;BME280;63344;46.980;28.882;2023-04-24T02:46:28;100621.41;;;4.97;92.00
71857;BME280;63344;46.980;28.882;2023-04-24T02:48:55;100614.38;;;4.98;92.11
71857;BME280;63344;46.980;28.882;2023-04-24T02:51:22;100614.38;;;4.98;92.11
71857;BME280;63344;46.980;28.882;2023-04-24T02:53:50;100613.50;;;4.97;92.11
71857;BME280;63344;46.980;28.882;2023-04-24T02:56:17;100613.53;;;4.96;92.36
71857;BME280;63344;46.980;28.882;2023-04-24T02:58:44;100615.31;;;4.95;92.44
71857;BME280;63344;46.980;28.882;2023-04-24T03:01:11;100622.31;;;4.95;92.38
71857;BME280;63344;46.980;28.882;2023-04-24T03:03:39;100617.03;;;4.95;92.41
71857;BME280;63344;46.980;28.882;2023-04-24T03:06:07;100619.72;;;4.93;92.41
71857;BME280;63344;46.980;28.882;2023-04-24T03:08:35;100618.88;;;4.91;92.07
71857;BME280;63344;46.980;28.882;2023-04-24T03:11:02;100617.09;;;4.92;92.40
71857;BME280;63344;46.980;28.882;2023-04-24T03:13:30;100620.63;;;4.91;92.25
71857;BME280;63344;46.980;28.882;2023-04-24T03:15:57;100618.81;;;4.93;92.59
71857;BME280;63344;46.980;28.882;2023-04-24T03:18:24;100623.19;;;4.95;92.45
71857;BME280;63344;46.980;28.882;2023-04-24T03:20:52;100624.00;;;4.99;92.69
71857;BME280;63344;46.980;28.882;2023-04-24T03:23:19;100628.28;;;5.05;93.07
71857;BME280;63344;46.980;28.882;2023-04-24T03:25:46;100626.50;;;5.08;93.15
71857;BME280;63344;46.980;28.882;2023-04-24T03:28:15;100626.25;;;5.22;93.99
71857;BME280;63344;46.980;28.882;2023-04-24T03:30:42;100635.53;;;5.43;95.25
71857;BME280;63344;46.980;28.882;2023-04-24T03:33:10;100632.59;;;5.63;96.91
71857;BME280;63344;46.980;28.882;2023-04-24T03:35:39;100633.94;;;5.83;96.25
71857;BME280;63344;46.980;28.882;2023-04-24T03:38:10;100632.84;;;5.94;94.27
71857;BME280;63344;46.980;28.882;2023-04-24T03:40:37;100635.19;;;6.11;92.07
71857;BME280;63344;46.980;28.882;2023-04-24T03:43:05;100634.00;;;6.26;90.54
71857;BME280;63344;46.980;28.882;2023-04-24T03:45:32;100637.91;;;6.49;90.59
71857;BME280;63344;46.980;28.882;2023-04-24T03:48:00;100640.84;;;6.75;91.38
71857;BME280;63344;46.980;28.882;2023-04-24T03:50:27;100641.19;;;6.99;89.97
71857;BME280;63344;46.980;28.882;2023-04-24T03:52:56;100650.09;;;7.31;89.53
71857;BME280;63344;46.980;28.882;2023-04-24T03:55:23;100645.00;;;7.59;89.41
71857;BME280;63344;46.980;28.882;2023-04-24T03:57:50;100642.44;;;7.89;89.38
71857;BME280;63344;46.980;28.882;2023-04-24T04:00:17;100649.31;;;8.26;88.77
71857;BME280;63344;46.980;28.882;2023-04-24T04:02:45;100650.84;;;8.64;88.99
71857;BME280;63344;46.980;28.882;2023-04-24T04:05:13;100651.53;;;9.01;86.14
71857;BME280;63344;46.980;28.882;2023-04-24T04:07:41;100648.72;;;9.32;83.53
71857;BME280;63344;46.980;28.882;2023-04-24T04:10:08;100655.75;;;9.60;83.12
71857;BME280;63344;46.980;28.882;2023-04-24T04:12:51;100656.50;;;9.88;82.93
71857;BME280;63344;46.980;28.882;2023-04-24T04:15:20;100650.91;;;10.21;79.14
71857;BME280;63344;46.980;28.882;2023-04-24T04:17:47;100645.22;;;10.55;76.37
71857;BME280;63344;46.980;28.882;2023-04-24T04:20:15;100653.69;;;10.89;75.39
71857;BME280;63344;46.980;28.882;2023-04-24T04:22:42;100649.53;;;11.04;75.73
71857;BME280;63344;46.980;28.882;2023-04-24T04:25:10;100650.78;;;11.17;76.34
71857;BME280;63344;46.980;28.882;2023-04-24T04:27:39;100655.31;;;11.35;76.36
71857;BME280;63344;46.980;28.882;2023-04-24T04:30:07;100646.72;;;11.71;75.72
71857;BME280;63344;46.980;28.882;2023-04-24T04:32:35;100655.31;;;12.19;75.09
71857;BME280;63344;46.980;28.882;2023-04-24T04:35:06;100646.91;;;12.47;73.93
71857;BME280;63344;46.980;28.882;2023-04-24T04:37:35;100641.94;;;12.97;73.35
71857;BME280;63344;46.980;28.882;2023-04-24T04:40:03;100649.50;;;13.42;70.74
71857;BME280;63344;46.980;28.882;2023-04-24T04:42:37;100649.19;;;13.83;67.12
71857;BME280;63344;46.980;28.882;2023-04-24T04:45:09;100646.97;;;14.09;64.78
71857;BME280;63344;46.980;28.882;2023-04-24T04:47:52;100656.50;;;14.30;62.50
71857;BME280;63344;46.980;28.882;2023-04-24T04:50:19;100651.72;;;14.53;61.12
71857;BME280;63344;46.980;28.882;2023-04-24T04:52:47;100650.38;;;14.78;61.20
71857;BME280;63344;46.980;28.882;2023-04-24T04:55:14;100647.47;;;14.98;61.43
71857;BME280;63344;46.980;28.882;2023-04-24T04:57:43;100649.22;;;15.13;60.58
71857;BME280;63344;46.980;28.882;2023-04-24T05:00:10;100658.22;;;15.28;59.87
71857;BME280;63344;46.980;28.882;2023-04-24T05:02:38;100651.41;;;15.53;59.15
71857;BME280;63344;46.980;28.882;2023-04-24T05:05:07;100647.41;;;15.76;58.94
71857;BME280;63344;46.980;28.882;2023-04-24T05:07:36;100636.25;;;15.98;58.04
71857;BME280;63344;46.980;28.882;2023-04-24T05:10:03;100639.50;;;16.03;55.08
71857;BME280;63344;46.980;28.882;2023-04-24T05:12:31;100642.38;;;16.15;54.53
71857;BME280;63344;46.980;28.882;2023-04-24T05:14:58;100643.75;;;16.22;54.13
71857;BME280;63344;46.980;28.882;2023-04-24T05:17:26;100641.47;;;15.85;53.71
71857;BME280;63344;46.980;28.882;2023-04-24T05:19:53;100645.94;;;15.40;53.62
71857;BME280;63344;46.980;28.882;2023-04-24T05:22:20;100643.22;;;14.78;54.06
71857;BME280;63344;46.980;28.882;2023-04-24T05:24:49;100651.56;;;14.23;55.66
71857;BME280;63344;46.980;28.882;2023-04-24T05:27:32;100652.56;;;13.87;57.36
71857;BME280;63344;46.980;28.882;2023-04-24T05:29:59;100644.06;;;13.44;58.45
71857;BME280;63344;46.980;28.882;2023-04-24T05:32:27;100643.94;;;13.10;59.41
71857;BME280;63344;46.980;28.882;2023-04-24T05:34:54;100633.44;;;12.88;60.80
71857;BME280;63344;46.980;28.882;2023-04-24T05:37:23;100640.66;;;12.67;61.65
71857;BME280;63344;46.980;28.882;2023-04-24T05:39:51;100642.94;;;12.56;62.60
71857;BME280;63344;46.980;28.882;2023-04-24T05:42:19;100641.81;;;12.43;63.75
71857;BME280;63344;46.980;28.882;2023-04-24T05:44:46;100635.25;;;12.31;64.53
71857;BME280;63344;46.980;28.882;2023-04-24T05:47:13;100637.25;;;12.26;65.32
71857;BME280;63344;46.980;28.882;2023-04-24T05:49:41;100634.69;;;12.24;65.50
71857;BME280;63344;46.980;28.882;2023-04-24T05:52:09;100633.88;;;12.22;65.71
71857;BME280;63344;46.980;28.882;2023-04-24T05:54:36;100626.69;;;12.24;66.64
71857;BME280;63344;46.980;28.882;2023-04-24T05:57:04;100619.78;;;12.20;67.45
71857;BME280;63344;46.980;28.882;2023-04-24T05:59:37;100630.28;;;12.23;67.57
71857;BME280;63344;46.980;28.882;2023-04-24T06:02:05;100626.59;;;12.26;67.96
71857;BME280;63344;46.980;28.882;2023-04-24T06:04:33;100622.22;;;12.25;68.38
71857;BME280;63344;46.980;28.882;2023-04-24T06:07:01;100626.53;;;12.27;68.56
71857;BME280;63344;46.980;28.882;2023-04-24T06:09:30;100627.09;;;12.34;68.62
71857;BME280;63344;46.980;28.882;2023-04-24T06:11:59;100620.72;;;12.38;68.19
71857;BME280;63344;46.980;28.882;2023-04-24T06:14:26;100622.38;;;12.41;68.51
71857;BME280;63344;46.980;28.882;2023-04-24T06:16:54;100625.38;;;12.52;68.69
71857;BME280;63344;46.980;28.882;2023-04-24T06:19:21;100621.63;;;12.56;68.45
71857;BME280;63344;46.980;28.882;2023-04-24T06:21:48;100624.03;;;12.62;68.72
71857;BME280;63344;46.980;28.882;2023-04-24T06:24:18;100628.19;;;12.68;68.19
71857;BME280;63344;46.980;28.882;2023-04-24T06:27:01;100619.03;;;12.73;68.30
71857;BME280;63344;46.980;28.882;2023-04-24T06:29:28;100627.22;;;12.88;67.91
71857;BME280;63344;46.980;28.882;2023-04-24T06:31:56;100627.59;;;12.99;67.73
71857;BME280;63344;46.980;28.882;2023-04-24T06:34:23;100626.19;;;13.09;67.95
71857;BME280;63344;46.980;28.882;2023-04-24T06:36:51;100625.75;;;13.19;67.82
71857;BME280;63344;46.980;28.882;2023-04-24T06:39:18;100622.72;;;13.26;67.09
71857;BME280;63344;46.980;28.882;2023-04-24T06:41:45;100623.03;;;13.38;67.26
71857;BME280;63344;46.980;28.882;2023-04-24T06:44:13;100630.72;;;13.44;67.05
71857;BME280;63344;46.980;28.882;2023-04-24T06:46:43;100619.59;;;13.53;66.57
71857;BME280;63344;46.980;28.882;2023-04-24T06:49:12;100631.28;;;13.68;66.67
71857;BME280;63344;46.980;28.882;2023-04-24T06:51:42;100629.88;;;13.78;65.97
71857;BME280;63344;46.980;28.882;2023-04-24T06:54:10;100626.56;;;13.90;65.72
71857;BME280;63344;46.980;28.882;2023-04-24T06:56:37;100618.84;;;14.02;65.39
71857;BME280;63344;46.980;28.882;2023-04-24T06:59:24;100613.97;;;14.10;64.88
71857;BME280;63344;46.980;28.882;2023-04-24T07:01:54;100626.56;;;14.24;64.60
71857;BME280;63344;46.980;28.882;2023-04-24T07:04:23;100624.50;;;14.29;63.59
71857;BME280;63344;46.980;28.882;2023-04-24T07:06:53;100621.59;;;14.33;63.25
71857;BME280;63344;46.980;28.882;2023-04-24T07:09:33;100622.66;;;14.47;63.78
71857;BME280;63344;46.980;28.882;2023-04-24T07:12:02;100624.66;;;14.59;61.38
71857;BME280;63344;46.980;28.882;2023-04-24T07:14:32;100622.06;;;14.73;60.79
71857;BME280;63344;46.980;28.882;2023-04-24T07:17:00;100621.66;;;14.81;60.09
71857;BME280;63344;46.980;28.882;2023-04-24T07:19:29;100624.41;;;14.96;60.55
71857;BME280;63344;46.980;28.882;2023-04-24T07:21:57;100626.41;;;15.08;60.76
71857;BME280;63344;46.980;28.882;2023-04-24T07:24:25;100624.03;;;15.18;60.39
71857;BME280;63344;46.980;28.882;2023-04-24T07:26:58;100622.44;;;15.29;59.10
71857;BME280;63344;46.980;28.882;2023-04-24T07:29:25;100615.88;;;15.35;58.12
71857;BME280;63344;46.980;28.882;2023-04-24T07:31:53;100613.38;;;15.48;58.97
71857;BME280;63344;46.980;28.882;2023-04-24T07:34:21;100613.38;;;15.62;57.78
71857;BME280;63344;46.980;28.882;2023-04-24T07:36:48;100603.72;;;15.76;55.56
71857;BME280;63344;46.980;28.882;2023-04-24T07:39:15;100606.94;;;15.81;55.30
71857;BME280;63344;46.980;28.882;2023-04-24T07:41:43;100616.72;;;15.96;54.70
71857;BME280;63344;46.980;28.882;2023-04-24T07:44:10;100603.25;;;16.12;55.44
71857;BME280;63344;46.980;28.882;2023-04-24T07:46:38;100605.16;;;16.24;55.04
71857;BME280;63344;46.980;28.882;2023-04-24T07:49:06;100603.91;;;16.44;53.42
71857;BME280;63344;46.980;28.882;2023-04-24T07:51:49;100602.16;;;16.58;50.72
71857;BME280;63344;46.980;28.882;2023-04-24T07:54:17;100600.88;;;16.63;50.93
71857;BME280;63344;46.980;28.882;2023-04-24T07:56:45;100605.47;;;16.76;49.49
71857;BME280;63344;46.980;28.882;2023-04-24T07:59:14;100600.38;;;16.85;48.04
71857;BME280;63344;46.980;28.882;2023-04-24T08:01:43;100595.50;;;16.92;46.35
71857;BME280;63344;46.980;28.882;2023-04-24T08:04:10;100606.56;;;17.00;46.74
71857;BME280;63344;46.980;28.882;2023-04-24T08:06:38;100600.38;;;17.12;47.17
71857;BME280;63344;46.980;28.882;2023-04-24T08:09:08;100597.53;;;17.28;47.56
71857;BME280;63344;46.980;28.882;2023-04-24T08:11:39;100594.13;;;17.39;47.52
71857;BME280;63344;46.980;28.882;2023-04-24T08:14:06;100598.53;;;17.40;44.80
71857;BME280;63344;46.980;28.882;2023-04-24T08:16:34;100595.44;;;17.46;45.37
71857;BME280;63344;46.980;28.882;2023-04-24T08:19:03;100584.75;;;17.85;46.13
71857;BME280;63344;46.980;28.882;2023-04-24T08:21:31;100589.16;;;18.98;42.54
71857;BME280;63344;46.980;28.882;2023-04-24T08:23:58;100584.59;;;19.71;41.11
71857;BME280;63344;46.980;28.882;2023-04-24T08:26:27;100583.38;;;20.54;40.20
71857;BME280;63344;46.980;28.882;2023-04-24T08:28:55;100587.03;;;21.40;38.55
71857;BME280;63344;46.980;28.882;2023-04-24T08:31:23;100579.69;;;22.36;37.39
71857;BME280;63344;46.980;28.882;2023-04-24T08:33:52;100578.81;;;22.96;35.17
71857;BME280;63344;46.980;28.882;2023-04-24T08:36:22;100579.28;;;23.50;34.99
71857;BME280;63344;46.980;28.882;2023-04-24T08:39:03;100563.72;;;24.46;34.12
71857;BME280;63344;46.980;28.882;2023-04-24T08:41:34;100571.16;;;24.44;31.76
71857;BME280;63344;46.980;28.882;2023-04-24T08:44:02;100576.06;;;24.03;33.10
71857;BME280;63344;46.980;28.882;2023-04-24T08:46:30;100566.47;;;24.92;33.05
71857;BME280;63344;46.980;28.882;2023-04-24T08:49:01;100558.09;;;26.09;32.09
71857;BME280;63344;46.980;28.882;2023-04-24T08:51:31;100554.31;;;27.03;29.97
71857;BME280;63344;46.980;28.882;2023-04-24T08:53:58;100560.00;;;27.35;27.38
71857;BME280;63344;46.980;28.882;2023-04-24T08:56:26;100553.22;;;26.63;27.56
71857;BME280;63344;46.980;28.882;2023-04-24T08:58:54;100544.41;;;26.78;28.37
71857;BME280;63344;46.980;28.882;2023-04-24T09:01:23;100557.72;;;26.97;27.11
71857;BME280;63344;46.980;28.882;2023-04-24T09:03:53;100545.53;;;27.34;27.80
71857;BME280;63344;46.980;28.882;2023-04-24T09:06:23;100532.16;;;27.89;26.62
71857;BME280;63344;46.980;28.882;2023-04-24T09:08:53;100534.19;;;27.95;25.64
71857;BME280;63344;46.980;28.882;2023-04-24T09:11:21;100542.03;;;26.75;26.80
71857;BME280;63344;46.980;28.882;2023-04-24T09:13:50;100537.44;;;27.00;25.95
71857;BME280;63344;46.980;28.882;2023-04-24T09:16:19;100528.41;;;27.16;24.68
71857;BME280;63344;46.980;28.882;2023-04-24T09:18:46;100532.19;;;26.90;24.49
71857;BME280;63344;46.980;28.882;2023-04-24T09:21:15;100534.50;;;26.60;25.47
71857;BME280;63344;46.980;28.882;2023-04-24T09:23:44;100520.63;;;27.29;25.44
71857;BME280;63344;46.980;28.882;2023-04-24T09:26:13;100524.34;;;28.25;24.00
71857;BME280;63344;46.980;28.882;2023-04-24T09:28:43;100514.72;;;29.00;22.70
71857;BME280;63344;46.980;28.882;2023-04-24T09:31:15;100524.34;;;27.53;23.29
71857;BME280;63344;46.980;28.882;2023-04-24T09:34:12;100523.06;;;25.62;24.89
71857;BME280;63344;46.980;28.882;2023-04-24T09:36:41;100519.34;;;26.23;26.15
71857;BME280;63344;46.980;28.882;2023-04-24T09:39:11;100512.75;;;27.59;24.56
71857;BME280;63344;46.980;28.882;2023-04-24T09:41:55;100514.69;;;28.46;22.60
71857;BME280;63344;46.980;28.882;2023-04-24T09:44:26;100496.97;;;28.73;21.58
71857;BME280;63344;46.980;28.882;2023-04-24T09:46:58;100511.41;;;27.55;23.45
71857;BME280;63344;46.980;28.882;2023-04-24T09:49:30;100511.84;;;25.57;25.43
71857;BME280;63344;46.980;28.882;2023-04-24T09:52:06;100504.38;;;24.97;26.76
71857;BME280;63344;46.980;28.882;2023-04-24T09:54:33;100506.13;;;24.52;27.65
71857;BME280;63344;46.980;28.882;2023-04-24T09:57:04;100501.56;;;23.88;28.33
71857;BME280;63344;46.980;28.882;2023-04-24T09:59:32;100507.97;;;23.39;28.87
71857;BME280;63344;46.980;28.882;2023-04-24T10:02:02;100506.75;;;22.44;29.58
71857;BME280;63344;46.980;28.882;2023-04-24T10:04:35;100495.69;;;22.47;30.37
71857;BME280;63344;46.980;28.882;2023-04-24T10:07:14;100494.50;;;24.32;28.44
71857;BME280;63344;46.980;28.882;2023-04-24T10:09:41;100495.06;;;25.43;27.02
71857;BME280;63344;46.980;28.882;2023-04-24T10:12:10;100484.03;;;26.48;25.09
71857;BME280;63344;46.980;28.882;2023-04-24T10:14:38;100475.59;;;27.17;24.30
71857;BME280;63344;46.980;28.882;2023-04-24T10:17:10;100476.44;;;27.58;23.25
71857;BME280;63344;46.980;28.882;2023-04-24T10:19:38;100470.75;;;28.24;23.69
71857;BME280;63344;46.980;28.882;2023-04-24T10:22:09;100474.13;;;29.12;22.83
71857;BME280;63344;46.980;28.882;2023-04-24T10:24:38;100486.78;;;29.95;21.51
71857;BME280;63344;46.980;28.882;2023-04-24T10:27:07;100469.38;;;28.59;22.52
71857;BME280;63344;46.980;28.882;2023-04-24T10:29:35;100474.25;;;28.72;22.53
71857;BME280;63344;46.980;28.882;2023-04-24T10:32:02;100468.38;;;29.22;22.23
71857;BME280;63344;46.980;28.882;2023-04-24T10:34:30;100466.78;;;29.95;22.07
71857;BME280;63344;46.980;28.882;2023-04-24T10:36:57;100455.59;;;30.63;21.30
71857;BME280;63344;46.980;28.882;2023-04-24T10:39:39;100468.69;;;28.57;21.91
71857;BME280;63344;46.980;28.882;2023-04-24T10:42:15;100470.06;;;26.51;24.28
71857;BME280;63344;46.980;28.882;2023-04-24T10:44:43;100464.66;;;25.22;25.73
71857;BME280;63344;46.980;28.882;2023-04-24T10:47:17;100467.56;;;24.21;26.92
71857;BME280;63344;46.980;28.882;2023-04-24T10:49:50;100467.41;;;23.48;28.48
71857;BME280;63344;46.980;28.882;2023-04-24T10:52:18;100471.03;;;22.99;29.83
71857;BME280;63344;46.980;28.882;2023-04-24T10:54:47;100476.44;;;22.41;30.80
71857;BME280;63344;46.980;28.882;2023-04-24T10:59:51;100470.41;;;21.56;32.56
71857;BME280;63344;46.980;28.882;2023-04-24T11:02:37;100470.53;;;21.13;33.27
71857;BME280;63344;46.980;28.882;2023-04-24T11:05:06;100469.94;;;20.88;33.30
71857;BME280;63344;46.980;28.882;2023-04-24T11:10:46;100456.91;;;20.61;33.14
71857;BME280;63344;46.980;28.882;2023-04-24T11:13:16;100464.53;;;20.44;33.44
71857;BME280;63344;46.980;28.882;2023-04-24T11:15:43;100463.03;;;20.19;33.96
71857;BME280;63344;46.980;28.882;2023-04-24T11:18:15;100470.53;;;19.82;34.43
71857;BME280;63344;46.980;28.882;2023-04-24T11:20:44;100457.03;;;19.59;35.50
71857;BME280;63344;46.980;28.882;2023-04-24T11:23:12;100458.09;;;19.34;35.71
71857;BME280;63344;46.980;28.882;2023-04-24T11:25:42;100462.13;;;19.17;36.24
71857;BME280;63344;46.980;28.882;2023-04-24T11:28:14;100460.00;;;19.09;36.98
71857;BME280;63344;46.980;28.882;2023-04-24T11:30:43;100454.38;;;19.01;38.32
71857;BME280;63344;46.980;28.882;2023-04-24T11:33:10;100462.03;;;18.95;38.06
71857;BME280;63344;46.980;28.882;2023-04-24T11:35:40;100465.78;;;18.81;37.84
71857;BME280;63344;46.980;28.882;2023-04-24T11:38:07;100487.84;;;18.73;40.50
71857;BME280;63344;46.980;28.882;2023-04-24T11:40:42;100480.66;;;18.13;43.29
71857;BME280;63344;46.980;28.882;2023-04-24T11:43:10;100486.50;;;17.17;46.26
71857;BME280;63344;46.980;28.882;2023-04-24T11:45:37;100479.06;;;16.40;48.86
71857;BME280;63344;46.980;28.882;2023-04-24T11:48:06;100487.47;;;15.92;50.94
71857;BME280;63344;46.980;28.882;2023-04-24T11:50:36;100496.53;;;15.61;51.68
71857;BME280;63344;46.980;28.882;2023-04-24T11:53:06;100498.63;;;15.42;52.22
71857;BME280;63344;46.980;28.882;2023-04-24T11:55:33;100512.56;;;15.32;55.20
71857;BME280;63344;46.980;28.882;2023-04-24T11:58:05;100548.34;;;15.16;56.67
71857;BME280;63344;46.980;28.882;2023-04-24T12:00:56;100516.41;;;13.87;60.73
71857;BME280;63344;46.980;28.882;2023-04-24T12:03:23;100455.56;;;12.74;63.13
71857;BME280;63344;46.980;28.882;2023-04-24T12:05:50;100471.06;;;12.30;59.88
71857;BME280;63344;46.980;28.882;2023-04-24T12:08:30;100464.88;;;12.29;62.12
71857;BME280;63344;46.980;28.882;2023-04-24T12:11:02;100457.97;;;12.62;62.71
71857;BME280;63344;46.980;28.882;2023-04-24T12:13:29;100442.16;;;12.76;58.11
71857;BME280;63344;46.980;28.882;2023-04-24T12:16:01;100431.72;;;12.89;58.17
71857;BME280;63344;46.980;28.882;2023-04-24T12:18:31;100430.22;;;13.18;58.04
71857;BME280;63344;46.980;28.882;2023-04-24T12:21:22;100418.59;;;13.37;56.41
71857;BME280;63344;46.980;28.882;2023-04-24T12:23:55;100429.03;;;13.57;57.38
71857;BME280;63344;46.980;28.882;2023-04-24T12:26:23;100422.78;;;13.74;59.76
71857;BME280;63344;46.980;28.882;2023-04-24T12:28:53;100415.22;;;13.82;60.52
71857;BME280;63344;46.980;28.882;2023-04-24T12:31:21;100413.41;;;13.99;59.82
71857;BME280;63344;46.980;28.882;2023-04-24T12:33:48;100416.34;;;14.10;60.44
71857;BME280;63344;46.980;28.882;2023-04-24T12:36:15;100399.75;;;14.35;62.79
71857;BME280;63344;46.980;28.882;2023-04-24T12:38:44;100409.34;;;14.53;62.10
71857;BME280;63344;46.980;28.882;2023-04-24T12:41:17;100401.84;;;14.76;59.87
71857;BME280;63344;46.980;28.882;2023-04-24T12:43:53;100396.06;;;15.12;61.70
71857;BME280;63344;46.980;28.882;2023-04-24T12:46:26;100395.13;;;15.42;57.96
71857;BME280;63344;46.980;28.882;2023-04-24T12:48:53;100390.03;;;15.66;55.96
71857;BME280;63344;46.980;28.882;2023-04-24T12:51:20;100386.09;;;15.86;52.85
71857;BME280;63344;46.980;28.882;2023-04-24T12:53:48;100390.34;;;16.03;53.85
71857;BME280;63344;46.980;28.882;2023-04-24T12:56:15;100380.81;;;16.26;55.47
71857;BME280;63344;46.980;28.882;2023-04-24T12:58:43;100372.19;;;16.61;52.56